sensor_id;sensor_type;location;lat;lon;timestamp;P1;durP1;ratioP1;P2;durP2;ratioP2
21581;SDS011;10952;50.836;4.348;2023-11-21T00:00:18;48.90;;;22.50;;
21581;SDS011;10952;50.836;4.348;2023-11-21T00:02:44;45.47;;;21.30;;
21581;SDS011;10952;50.836;4.348;2023-11-21T00:05:11;46.07;;;21.00;;
21581;SDS011;10952;50.836;4.348;2023-11-21T00:07:39;47.97;;;22.60;;
21581;SDS011;10952;50.836;4.348;2023-11-21T00:10:05;51.43;;;21.77;;
21581;SDS011;10952;50.836;4.348;2023-11-21T00:12:33;49.33;;;21.57;;
21581;SDS011;10952;50.836;4.348;2023-11-21T00:14:59;50.03;;;22.60;;
21581;SDS011;10952;50.836;4.348;2023-11-21T00:17:25;47.80;;;23.37;;
21581;SDS011;10952;50.836;4.348;2023-11-21T00:19:50;54.03;;;23.07;;
21581;SDS011;10952;50.836;4.348;2023-11-21T00:22:19;54.50;;;23.57;;
21581;SDS011;10952;50.836;4.348;2023-11-21T00:24:45;46.93;;;22.70;;
21581;SDS011;10952;50.836;4.348;2023-11-21T00:27:11;50.83;;;22.83;;
21581;SDS011;10952;50.836;4.348;2023-11-21T00:29:36;51.73;;;21.97;;
21581;SDS011;10952;50.836;4.348;2023-11-21T00:32:03;46.57;;;21.47;;
21581;SDS011;10952;50.836;4.348;2023-11-21T00:34:30;49.97;;;22.23;;
21581;SDS011;10952;50.836;4.348;2023-11-21T00:36:56;47.20;;;21.30;;
21581;SDS011;10952;50.836;4.348;2023-11-21T00:39:22;43.23;;;21.97;;
21581;SDS011;10952;50.836;4.348;2023-11-21T00:41:47;45.30;;;21.53;;
21581;SDS011;10952;50.836;4.348;2023-11-21T00:44:13;46.77;;;22.03;;
21581;SDS011;10952;50.836;4.348;2023-11-21T00:46:39;41.87;;;20.57;;
21581;SDS011;10952;50.836;4.348;2023-11-21T00:49:04;49.80;;;21.17;;
21581;SDS011;10952;50.836;4.348;2023-11-21T00:51:30;43.87;;;20.53;;
21581;SDS011;10952;50.836;4.348;2023-11-21T00:53:56;48.03;;;22.00;;
21581;SDS011;10952;50.836;4.348;2023-11-21T00:56:22;44.87;;;21.27;;
21581;SDS011;10952;50.836;4.348;2023-11-21T00:58:47;42.40;;;20.97;;
21581;SDS011;10952;50.836;4.348;2023-11-21T01:01:17;37.83;;;19.93;;
21581;SDS011;10952;50.836;4.348;2023-11-21T01:03:49;42.37;;;21.20;;
21581;SDS011;10952;50.836;4.348;2023-11-21T01:06:15;42.80;;;19.43;;
21581;SDS011;10952;50.836;4.348;2023-11-21T01:08:41;46.10;;;20.97;;
21581;SDS011;10952;50.836;4.348;2023-11-21T01:11:08;44.20;;;21.37;;
21581;SDS011;10952;50.836;4.348;2023-11-21T01:13:35;46.87;;;21.87;;
21581;SDS011;10952;50.836;4.348;2023-11-21T01:16:01;48.10;;;20.50;;
21581;SDS011;10952;50.836;4.348;2023-11-21T01:18:26;48.87;;;22.03;;
21581;SDS011;10952;50.836;4.348;2023-11-21T01:20:54;40.77;;;20.00;;
21581;SDS011;10952;50.836;4.348;2023-11-21T01:23:19;44.53;;;21.50;;
21581;SDS011;10952;50.836;4.348;2023-11-21T01:25:45;53.10;;;21.63;;
21581;SDS011;10952;50.836;4.348;2023-11-21T01:28:11;41.30;;;21.17;;
21581;SDS011;10952;50.836;4.348;2023-11-21T01:30:37;40.87;;;20.23;;
21581;SDS011;10952;50.836;4.348;2023-11-21T01:33:02;42.00;;;21.00;;
21581;SDS011;10952;50.836;4.348;2023-11-21T01:35:28;44.03;;;19.73;;
21581;SDS011;10952;50.836;4.348;2023-11-21T01:37:54;40.93;;;19.77;;
21581;SDS011;10952;50.836;4.348;2023-11-21T01:40:19;41.27;;;20.73;;
21581;SDS011;10952;50.836;4.348;2023-11-21T01:42:46;39.03;;;19.60;;
21581;SDS011;10952;50.836;4.348;2023-11-21T01:45:12;43.33;;;20.67;;
21581;SDS011;10952;50.836;4.348;2023-11-21T01:47:38;43.50;;;19.83;;
21581;SDS011;10952;50.836;4.348;2023-11-21T01:50:06;40.10;;;20.57;;
21581;SDS011;10952;50.836;4.348;2023-11-21T01:52:34;44.80;;;20.53;;
21581;SDS011;10952;50.836;4.348;2023-11-21T01:55:00;33.10;;;19.40;;
21581;SDS011;10952;50.836;4.348;2023-11-21T01:57:27;42.57;;;20.67;;
21581;SDS011;10952;50.836;4.348;2023-11-21T01:59:54;38.90;;;21.43;;
21581;SDS011;10952;50.836;4.348;2023-11-21T02:02:20;44.27;;;20.20;;
21581;SDS011;10952;50.836;4.348;2023-11-21T02:04:45;36.83;;;20.33;;
21581;SDS011;10952;50.836;4.348;2023-11-21T02:07:11;41.50;;;20.20;;
21581;SDS011;10952;50.836;4.348;2023-11-21T02:09:37;42.63;;;20.53;;
21581;SDS011;10952;50.836;4.348;2023-11-21T02:12:07;39.20;;;18.70;;
21581;SDS011;10952;50.836;4.348;2023-11-21T02:14:35;36.50;;;18.00;;
21581;SDS011;10952;50.836;4.348;2023-11-21T02:17:01;38.87;;;19.97;;
21581;SDS011;10952;50.836;4.348;2023-11-21T02:19:28;37.73;;;19.83;;
21581;SDS011;10952;50.836;4.348;2023-11-21T02:21:56;44.90;;;21.53;;
21581;SDS011;10952;50.836;4.348;2023-11-21T02:24:31;41.87;;;20.07;;
21581;SDS011;10952;50.836;4.348;2023-11-21T02:26:57;42.97;;;19.97;;
21581;SDS011;10952;50.836;4.348;2023-11-21T02:29:23;44.87;;;20.50;;
21581;SDS011;10952;50.836;4.348;2023-11-21T02:31:53;40.33;;;19.40;;
21581;SDS011;10952;50.836;4.348;2023-11-21T02:34:19;44.00;;;21.47;;
21581;SDS011;10952;50.836;4.348;2023-11-21T02:36:46;43.73;;;20.73;;
21581;SDS011;10952;50.836;4.348;2023-11-21T02:39:14;36.67;;;20.37;;
21581;SDS011;10952;50.836;4.348;2023-11-21T02:41:40;36.00;;;19.07;;
21581;SDS011;10952;50.836;4.348;2023-11-21T02:44:06;38.73;;;19.50;;
21581;SDS011;10952;50.836;4.348;2023-11-21T02:46:35;40.83;;;19.80;;
21581;SDS011;10952;50.836;4.348;2023-11-21T02:49:02;38.50;;;19.73;;
21581;SDS011;10952;50.836;4.348;2023-11-21T02:51:28;40.70;;;20.97;;
21581;SDS011;10952;50.836;4.348;2023-11-21T02:53:58;37.07;;;20.73;;
21581;SDS011;10952;50.836;4.348;2023-11-21T02:56:26;45.10;;;19.83;;
21581;SDS011;10952;50.836;4.348;2023-11-21T02:58:55;41.00;;;19.70;;
21581;SDS011;10952;50.836;4.348;2023-11-21T03:01:21;34.07;;;18.80;;
21581;SDS011;10952;50.836;4.348;2023-11-21T03:03:48;38.43;;;18.50;;
21581;SDS011;10952;50.836;4.348;2023-11-21T03:06:16;37.40;;;17.80;;
21581;SDS011;10952;50.836;4.348;2023-11-21T03:08:42;38.07;;;17.80;;
21581;SDS011;10952;50.836;4.348;2023-11-21T03:11:08;33.60;;;17.93;;
21581;SDS011;10952;50.836;4.348;2023-11-21T03:13:34;34.37;;;17.60;;
21581;SDS011;10952;50.836;4.348;2023-11-21T03:15:59;36.40;;;18.90;;
21581;SDS011;10952;50.836;4.348;2023-11-21T03:18:25;42.17;;;19.80;;
21581;SDS011;10952;50.836;4.348;2023-11-21T03:20:52;33.83;;;18.47;;
21581;SDS011;10952;50.836;4.348;2023-11-21T03:23:18;39.60;;;20.03;;
21581;SDS011;10952;50.836;4.348;2023-11-21T03:25:44;40.33;;;19.80;;
21581;SDS011;10952;50.836;4.348;2023-11-21T03:28:10;41.23;;;19.60;;
21581;SDS011;10952;50.836;4.348;2023-11-21T03:30:35;41.00;;;20.57;;
21581;SDS011;10952;50.836;4.348;2023-11-21T03:33:01;38.20;;;20.43;;
21581;SDS011;10952;50.836;4.348;2023-11-21T03:35:27;43.00;;;21.63;;
21581;SDS011;10952;50.836;4.348;2023-11-21T03:37:53;38.00;;;21.17;;
21581;SDS011;10952;50.836;4.348;2023-11-21T03:40:18;39.63;;;20.50;;
21581;SDS011;10952;50.836;4.348;2023-11-21T03:42:46;45.60;;;20.70;;
21581;SDS011;10952;50.836;4.348;2023-11-21T03:45:12;44.83;;;22.20;;
21581;SDS011;10952;50.836;4.348;2023-11-21T03:47:39;42.43;;;21.93;;
21581;SDS011;10952;50.836;4.348;2023-11-21T03:50:07;48.83;;;23.03;;
21581;SDS011;10952;50.836;4.348;2023-11-21T03:52:34;50.50;;;25.03;;
21581;SDS011;10952;50.836;4.348;2023-11-21T03:55:00;40.20;;;22.63;;
21581;SDS011;10952;50.836;4.348;2023-11-21T03:57:26;41.07;;;21.17;;
21581;SDS011;10952;50.836;4.348;2023-11-21T03:59:52;42.07;;;21.20;;
21581;SDS011;10952;50.836;4.348;2023-11-21T04:02:18;41.63;;;22.17;;
21581;SDS011;10952;50.836;4.348;2023-11-21T04:04:44;47.50;;;23.70;;
21581;SDS011;10952;50.836;4.348;2023-11-21T04:07:10;42.23;;;21.47;;
21581;SDS011;10952;50.836;4.348;2023-11-21T04:09:36;42.63;;;22.20;;
21581;SDS011;10952;50.836;4.348;2023-11-21T04:12:02;43.20;;;21.50;;
21581;SDS011;10952;50.836;4.348;2023-11-21T04:14:27;43.80;;;22.33;;
21581;SDS011;10952;50.836;4.348;2023-11-21T04:16:53;42.23;;;22.10;;
21581;SDS011;10952;50.836;4.348;2023-11-21T04:19:19;44.33;;;22.07;;
21581;SDS011;10952;50.836;4.348;2023-11-21T04:21:44;45.75;;;23.77;;
21581;SDS011;10952;50.836;4.348;2023-11-21T04:24:11;44.03;;;22.53;;
21581;SDS011;10952;50.836;4.348;2023-11-21T04:26:36;43.83;;;22.37;;
21581;SDS011;10952;50.836;4.348;2023-11-21T04:29:02;42.53;;;21.63;;
21581;SDS011;10952;50.836;4.348;2023-11-21T04:31:29;45.20;;;22.03;;
21581;SDS011;10952;50.836;4.348;2023-11-21T04:33:55;41.57;;;22.73;;
21581;SDS011;10952;50.836;4.348;2023-11-21T04:36:20;42.80;;;22.07;;
21581;SDS011;10952;50.836;4.348;2023-11-21T04:38:46;43.90;;;22.90;;
21581;SDS011;10952;50.836;4.348;2023-11-21T04:41:12;47.00;;;21.83;;
21581;SDS011;10952;50.836;4.348;2023-11-21T04:43:37;39.90;;;22.30;;
21581;SDS011;10952;50.836;4.348;2023-11-21T04:46:03;45.83;;;22.70;;
21581;SDS011;10952;50.836;4.348;2023-11-21T04:48:29;48.83;;;22.77;;
21581;SDS011;10952;50.836;4.348;2023-11-21T04:50:54;44.13;;;23.67;;
21581;SDS011;10952;50.836;4.348;2023-11-21T04:53:20;44.33;;;21.83;;
21581;SDS011;10952;50.836;4.348;2023-11-21T04:55:45;42.83;;;22.07;;
21581;SDS011;10952;50.836;4.348;2023-11-21T04:58:11;43.10;;;22.70;;
21581;SDS011;10952;50.836;4.348;2023-11-21T05:00:37;43.73;;;23.40;;
21581;SDS011;10952;50.836;4.348;2023-11-21T05:03:03;49.33;;;22.00;;
21581;SDS011;10952;50.836;4.348;2023-11-21T05:05:30;45.23;;;22.77;;
21581;SDS011;10952;50.836;4.348;2023-11-21T05:07:55;41.37;;;22.13;;
21581;SDS011;10952;50.836;4.348;2023-11-21T05:10:21;46.80;;;23.30;;
21581;SDS011;10952;50.836;4.348;2023-11-21T05:12:47;43.50;;;23.53;;
21581;SDS011;10952;50.836;4.348;2023-11-21T05:15:15;43.13;;;22.53;;
21581;SDS011;10952;50.836;4.348;2023-11-21T05:17:42;41.50;;;22.13;;
21581;SDS011;10952;50.836;4.348;2023-11-21T05:20:09;41.53;;;21.20;;
21581;SDS011;10952;50.836;4.348;2023-11-21T05:22:36;41.80;;;21.20;;
21581;SDS011;10952;50.836;4.348;2023-11-21T05:25:02;43.27;;;22.33;;
21581;SDS011;10952;50.836;4.348;2023-11-21T05:27:29;42.70;;;22.63;;
21581;SDS011;10952;50.836;4.348;2023-11-21T05:29:56;38.93;;;21.23;;
21581;SDS011;10952;50.836;4.348;2023-11-21T05:32:23;37.73;;;21.00;;
21581;SDS011;10952;50.836;4.348;2023-11-21T05:34:49;41.43;;;21.70;;
21581;SDS011;10952;50.836;4.348;2023-11-21T05:37:14;42.93;;;22.23;;
21581;SDS011;10952;50.836;4.348;2023-11-21T05:39:40;42.83;;;22.60;;
21581;SDS011;10952;50.836;4.348;2023-11-21T05:42:06;43.27;;;21.90;;
21581;SDS011;10952;50.836;4.348;2023-11-21T05:44:31;43.40;;;22.90;;
21581;SDS011;10952;50.836;4.348;2023-11-21T05:46:57;51.40;;;22.63;;
21581;SDS011;10952;50.836;4.348;2023-11-21T05:49:24;47.80;;;21.40;;
21581;SDS011;10952;50.836;4.348;2023-11-21T05:51:52;36.97;;;21.23;;
21581;SDS011;10952;50.836;4.348;2023-11-21T05:54:21;40.07;;;22.57;;
21581;SDS011;10952;50.836;4.348;2023-11-21T05:56:47;48.20;;;21.97;;
21581;SDS011;10952;50.836;4.348;2023-11-21T05:59:14;43.07;;;22.03;;
21581;SDS011;10952;50.836;4.348;2023-11-21T06:01:40;42.00;;;21.87;;
21581;SDS011;10952;50.836;4.348;2023-11-21T06:04:05;39.90;;;20.87;;
21581;SDS011;10952;50.836;4.348;2023-11-21T06:06:33;45.73;;;23.27;;
21581;SDS011;10952;50.836;4.348;2023-11-21T06:08:59;39.43;;;21.30;;
21581;SDS011;10952;50.836;4.348;2023-11-21T06:11:25;47.40;;;24.07;;
21581;SDS011;10952;50.836;4.348;2023-11-21T06:13:50;38.50;;;21.70;;
21581;SDS011;10952;50.836;4.348;2023-11-21T06:16:18;37.17;;;20.77;;
21581;SDS011;10952;50.836;4.348;2023-11-21T06:18:45;42.27;;;22.67;;
21581;SDS011;10952;50.836;4.348;2023-11-21T06:21:11;46.07;;;22.90;;
21581;SDS011;10952;50.836;4.348;2023-11-21T06:23:37;38.00;;;21.47;;
21581;SDS011;10952;50.836;4.348;2023-11-21T06:26:03;41.30;;;21.63;;
21581;SDS011;10952;50.836;4.348;2023-11-21T06:28:29;41.73;;;22.03;;
21581;SDS011;10952;50.836;4.348;2023-11-21T06:30:55;45.73;;;20.93;;
21581;SDS011;10952;50.836;4.348;2023-11-21T06:33:23;45.07;;;23.67;;
21581;SDS011;10952;50.836;4.348;2023-11-21T06:35:48;48.97;;;23.93;;
21581;SDS011;10952;50.836;4.348;2023-11-21T06:38:14;46.63;;;22.37;;
21581;SDS011;10952;50.836;4.348;2023-11-21T06:40:40;44.17;;;21.00;;
21581;SDS011;10952;50.836;4.348;2023-11-21T06:43:06;43.80;;;21.50;;
21581;SDS011;10952;50.836;4.348;2023-11-21T06:45:32;41.93;;;22.47;;
21581;SDS011;10952;50.836;4.348;2023-11-21T06:47:59;43.20;;;21.57;;
21581;SDS011;10952;50.836;4.348;2023-11-21T06:50:25;40.43;;;22.53;;
21581;SDS011;10952;50.836;4.348;2023-11-21T06:52:51;37.70;;;21.53;;
21581;SDS011;10952;50.836;4.348;2023-11-21T06:55:16;39.93;;;21.30;;
21581;SDS011;10952;50.836;4.348;2023-11-21T06:57:42;40.50;;;22.13;;
21581;SDS011;10952;50.836;4.348;2023-11-21T07:00:08;38.23;;;20.87;;
21581;SDS011;10952;50.836;4.348;2023-11-21T07:02:34;38.00;;;21.87;;
21581;SDS011;10952;50.836;4.348;2023-11-21T07:05:00;47.10;;;22.47;;
21581;SDS011;10952;50.836;4.348;2023-11-21T07:07:26;42.13;;;21.87;;
21581;SDS011;10952;50.836;4.348;2023-11-21T07:09:53;36.33;;;21.37;;
21581;SDS011;10952;50.836;4.348;2023-11-21T07:12:18;40.57;;;21.53;;
21581;SDS011;10952;50.836;4.348;2023-11-21T07:14:44;36.60;;;21.50;;
21581;SDS011;10952;50.836;4.348;2023-11-21T07:17:10;43.93;;;23.10;;
21581;SDS011;10952;50.836;4.348;2023-11-21T07:19:37;40.10;;;21.57;;
21581;SDS011;10952;50.836;4.348;2023-11-21T07:22:03;40.33;;;21.17;;
21581;SDS011;10952;50.836;4.348;2023-11-21T07:24:31;42.77;;;22.23;;
21581;SDS011;10952;50.836;4.348;2023-11-21T07:26:57;37.90;;;22.47;;
21581;SDS011;10952;50.836;4.348;2023-11-21T07:29:23;39.00;;;22.43;;
21581;SDS011;10952;50.836;4.348;2023-11-21T07:31:51;41.00;;;22.83;;
21581;SDS011;10952;50.836;4.348;2023-11-21T07:34:20;38.23;;;21.87;;
21581;SDS011;10952;50.836;4.348;2023-11-21T07:36:46;45.20;;;22.87;;
21581;SDS011;10952;50.836;4.348;2023-11-21T07:39:12;43.50;;;21.43;;
21581;SDS011;10952;50.836;4.348;2023-11-21T07:41:41;42.80;;;22.00;;
21581;SDS011;10952;50.836;4.348;2023-11-21T07:44:13;43.73;;;22.43;;
21581;SDS011;10952;50.836;4.348;2023-11-21T07:46:39;42.47;;;22.90;;
21581;SDS011;10952;50.836;4.348;2023-11-21T07:49:05;42.67;;;22.93;;
21581;SDS011;10952;50.836;4.348;2023-11-21T07:51:31;47.63;;;24.17;;
21581;SDS011;10952;50.836;4.348;2023-11-21T07:53:56;53.40;;;25.40;;
21581;SDS011;10952;50.836;4.348;2023-11-21T07:56:22;47.03;;;24.67;;
21581;SDS011;10952;50.836;4.348;2023-11-21T07:58:48;46.53;;;24.50;;
21581;SDS011;10952;50.836;4.348;2023-11-21T08:01:15;45.03;;;24.33;;
21581;SDS011;10952;50.836;4.348;2023-11-21T08:03:40;52.10;;;24.10;;
21581;SDS011;10952;50.836;4.348;2023-11-21T08:06:06;59.97;;;25.57;;
21581;SDS011;10952;50.836;4.348;2023-11-21T08:08:33;45.80;;;23.00;;
21581;SDS011;10952;50.836;4.348;2023-11-21T08:10:59;50.40;;;24.77;;
21581;SDS011;10952;50.836;4.348;2023-11-21T08:13:26;47.77;;;23.73;;
21581;SDS011;10952;50.836;4.348;2023-11-21T08:15:54;52.47;;;26.20;;
21581;SDS011;10952;50.836;4.348;2023-11-21T08:18:21;49.40;;;23.37;;
21581;SDS011;10952;50.836;4.348;2023-11-21T08:20:47;52.90;;;24.47;;
21581;SDS011;10952;50.836;4.348;2023-11-21T08:23:16;52.43;;;22.27;;
21581;SDS011;10952;50.836;4.348;2023-11-21T08:25:45;51.97;;;24.37;;
21581;SDS011;10952;50.836;4.348;2023-11-21T08:28:11;54.20;;;25.70;;
21581;SDS011;10952;50.836;4.348;2023-11-21T08:30:39;61.27;;;27.43;;
21581;SDS011;10952;50.836;4.348;2023-11-21T08:33:06;51.90;;;25.23;;
21581;SDS011;10952;50.836;4.348;2023-11-21T08:35:33;51.93;;;26.23;;
21581;SDS011;10952;50.836;4.348;2023-11-21T08:38:00;46.27;;;23.00;;
21581;SDS011;10952;50.836;4.348;2023-11-21T08:40:26;54.00;;;24.43;;
21581;SDS011;10952;50.836;4.348;2023-11-21T08:42:52;49.43;;;24.40;;
21581;SDS011;10952;50.836;4.348;2023-11-21T08:45:18;60.17;;;24.63;;
21581;SDS011;10952;50.836;4.348;2023-11-21T08:47:45;48.87;;;22.97;;
21581;SDS011;10952;50.836;4.348;2023-11-21T08:50:11;50.80;;;24.63;;
21581;SDS011;10952;50.836;4.348;2023-11-21T08:52:40;48.77;;;23.97;;
21581;SDS011;10952;50.836;4.348;2023-11-21T08:55:06;66.83;;;30.73;;
21581;SDS011;10952;50.836;4.348;2023-11-21T08:57:40;52.60;;;25.43;;
21581;SDS011;10952;50.836;4.348;2023-11-21T09:00:08;56.37;;;24.77;;
21581;SDS011;10952;50.836;4.348;2023-11-21T09:02:37;56.40;;;25.40;;
21581;SDS011;10952;50.836;4.348;2023-11-21T09:05:06;56.43;;;26.77;;
21581;SDS011;10952;50.836;4.348;2023-11-21T09:07:33;58.83;;;25.73;;
21581;SDS011;10952;50.836;4.348;2023-11-21T09:10:00;48.60;;;23.50;;
21581;SDS011;10952;50.836;4.348;2023-11-21T09:12:26;62.50;;;24.40;;
21581;SDS011;10952;50.836;4.348;2023-11-21T09:14:52;53.10;;;25.00;;
21581;SDS011;10952;50.836;4.348;2023-11-21T09:17:18;62.27;;;24.90;;
21581;SDS011;10952;50.836;4.348;2023-11-21T09:19:44;59.57;;;27.30;;
21581;SDS011;10952;50.836;4.348;2023-11-21T09:22:14;53.90;;;24.17;;
21581;SDS011;10952;50.836;4.348;2023-11-21T09:24:41;55.97;;;25.40;;
21581;SDS011;10952;50.836;4.348;2023-11-21T09:27:08;58.90;;;25.20;;
21581;SDS011;10952;50.836;4.348;2023-11-21T09:29:34;59.37;;;25.73;;
21581;SDS011;10952;50.836;4.348;2023-11-21T09:32:00;62.00;;;26.57;;
21581;SDS011;10952;50.836;4.348;2023-11-21T09:34:26;57.43;;;23.23;;
21581;SDS011;10952;50.836;4.348;2023-11-21T09:36:52;62.77;;;26.53;;
21581;SDS011;10952;50.836;4.348;2023-11-21T09:39:19;57.97;;;25.30;;
21581;SDS011;10952;50.836;4.348;2023-11-21T09:41:51;67.77;;;24.70;;
21581;SDS011;10952;50.836;4.348;2023-11-21T09:44:22;59.00;;;26.43;;
21581;SDS011;10952;50.836;4.348;2023-11-21T09:47:14;63.50;;;24.90;;
21581;SDS011;10952;50.836;4.348;2023-11-21T09:49:42;56.43;;;25.53;;
21581;SDS011;10952;50.836;4.348;2023-11-21T09:52:15;54.60;;;25.07;;
21581;SDS011;10952;50.836;4.348;2023-11-21T09:54:49;61.90;;;25.00;;
21581;SDS011;10952;50.836;4.348;2023-11-21T09:57:15;59.23;;;24.63;;
21581;SDS011;10952;50.836;4.348;2023-11-21T09:59:42;63.23;;;27.13;;
21581;SDS011;10952;50.836;4.348;2023-11-21T10:02:10;66.17;;;27.23;;
21581;SDS011;10952;50.836;4.348;2023-11-21T10:04:38;56.13;;;24.10;;
21581;SDS011;10952;50.836;4.348;2023-11-21T10:07:05;55.10;;;23.57;;
21581;SDS011;10952;50.836;4.348;2023-11-21T10:09:35;48.90;;;22.50;;
21581;SDS011;10952;50.836;4.348;2023-11-21T10:12:03;49.80;;;23.53;;
21581;SDS011;10952;50.836;4.348;2023-11-21T10:14:33;50.23;;;22.63;;
21581;SDS011;10952;50.836;4.348;2023-11-21T10:17:02;39.53;;;18.67;;
21581;SDS011;10952;50.836;4.348;2023-11-21T10:19:28;34.17;;;17.53;;
21581;SDS011;10952;50.836;4.348;2023-11-21T10:21:55;30.00;;;16.53;;
21581;SDS011;10952;50.836;4.348;2023-11-21T10:24:24;28.60;;;15.23;;
21581;SDS011;10952;50.836;4.348;2023-11-21T10:26:50;29.50;;;16.23;;
21581;SDS011;10952;50.836;4.348;2023-11-21T10:29:17;28.90;;;16.37;;
21581;SDS011;10952;50.836;4.348;2023-11-21T10:31:43;27.53;;;15.47;;
21581;SDS011;10952;50.836;4.348;2023-11-21T10:36:44;34.80;;;19.00;;
21581;SDS011;10952;50.836;4.348;2023-11-21T10:39:19;28.77;;;16.57;;
21581;SDS011;10952;50.836;4.348;2023-11-21T10:41:48;30.53;;;17.07;;
21581;SDS011;10952;50.836;4.348;2023-11-21T10:44:16;35.73;;;19.07;;
21581;SDS011;10952;50.836;4.348;2023-11-21T10:46:48;33.80;;;18.40;;
21581;SDS011;10952;50.836;4.348;2023-11-21T10:49:16;30.57;;;17.37;;
21581;SDS011;10952;50.836;4.348;2023-11-21T10:51:45;31.03;;;16.77;;
21581;SDS011;10952;50.836;4.348;2023-11-21T10:54:16;28.67;;;16.20;;
21581;SDS011;10952;50.836;4.348;2023-11-21T10:56:43;28.87;;;16.10;;
21581;SDS011;10952;50.836;4.348;2023-11-21T10:59:10;35.67;;;18.67;;
21581;SDS011;10952;50.836;4.348;2023-11-21T11:01:41;35.40;;;19.53;;
21581;SDS011;10952;50.836;4.348;2023-11-21T11:04:09;31.63;;;17.10;;
21581;SDS011;10952;50.836;4.348;2023-11-21T11:06:44;36.63;;;20.43;;
21581;SDS011;10952;50.836;4.348;2023-11-21T11:09:16;34.20;;;19.83;;
21581;SDS011;10952;50.836;4.348;2023-11-21T11:11:42;36.43;;;19.27;;
21581;SDS011;10952;50.836;4.348;2023-11-21T11:14:11;37.03;;;20.37;;
21581;SDS011;10952;50.836;4.348;2023-11-21T11:16:41;40.80;;;21.77;;
21581;SDS011;10952;50.836;4.348;2023-11-21T11:19:08;38.53;;;21.30;;
21581;SDS011;10952;50.836;4.348;2023-11-21T11:27:20;43.80;;;21.93;;
21581;SDS011;10952;50.836;4.348;2023-11-21T11:32:58;41.67;;;23.07;;
21581;SDS011;10952;50.836;4.348;2023-11-21T11:36:13;44.53;;;22.23;;
21581;SDS011;10952;50.836;4.348;2023-11-21T11:38:31;39.83;;;22.83;;
21581;SDS011;10952;50.836;4.348;2023-11-21T11:41:00;39.90;;;23.07;;
21581;SDS011;10952;50.836;4.348;2023-11-21T11:43:31;40.27;;;23.47;;
21581;SDS011;10952;50.836;4.348;2023-11-21T11:45:59;40.87;;;23.73;;
21581;SDS011;10952;50.836;4.348;2023-11-21T11:48:28;40.40;;;22.70;;
21581;SDS011;10952;50.836;4.348;2023-11-21T11:51:01;30.97;;;19.70;;
21581;SDS011;10952;50.836;4.348;2023-11-21T11:53:28;30.17;;;19.13;;
21581;SDS011;10952;50.836;4.348;2023-11-21T11:58:55;29.53;;;18.27;;
21581;SDS011;10952;50.836;4.348;2023-11-21T12:01:22;31.83;;;18.50;;
21581;SDS011;10952;50.836;4.348;2023-11-21T12:06:39;25.23;;;15.87;;
21581;SDS011;10952;50.836;4.348;2023-11-21T12:09:06;23.33;;;14.17;;
21581;SDS011;10952;50.836;4.348;2023-11-21T12:11:39;22.97;;;14.40;;
21581;SDS011;10952;50.836;4.348;2023-11-21T12:14:06;23.27;;;14.07;;
21581;SDS011;10952;50.836;4.348;2023-11-21T12:16:32;26.43;;;14.83;;
21581;SDS011;10952;50.836;4.348;2023-11-21T12:18:58;23.03;;;14.13;;
21581;SDS011;10952;50.836;4.348;2023-11-21T12:21:23;21.30;;;14.33;;
21581;SDS011;10952;50.836;4.348;2023-11-21T12:23:50;26.20;;;17.17;;
21581;SDS011;10952;50.836;4.348;2023-11-21T12:26:16;21.77;;;13.87;;
21581;SDS011;10952;50.836;4.348;2023-11-21T12:28:41;22.97;;;14.73;;
21581;SDS011;10952;50.836;4.348;2023-11-21T12:31:07;24.90;;;14.70;;
21581;SDS011;10952;50.836;4.348;2023-11-21T12:33:33;26.60;;;14.27;;
21581;SDS011;10952;50.836;4.348;2023-11-21T12:36:00;20.50;;;14.63;;
21581;SDS011;10952;50.836;4.348;2023-11-21T12:38:30;18.80;;;12.27;;
21581;SDS011;10952;50.836;4.348;2023-11-21T12:41:00;17.13;;;11.27;;
21581;SDS011;10952;50.836;4.348;2023-11-21T12:43:25;17.10;;;10.23;;
21581;SDS011;10952;50.836;4.348;2023-11-21T12:45:52;16.93;;;10.17;;
21581;SDS011;10952;50.836;4.348;2023-11-21T12:48:31;13.63;;;9.27;;
21581;SDS011;10952;50.836;4.348;2023-11-21T12:50:57;15.03;;;10.30;;
21581;SDS011;10952;50.836;4.348;2023-11-21T12:53:25;16.33;;;9.73;;
21581;SDS011;10952;50.836;4.348;2023-11-21T12:55:55;20.37;;;9.37;;
21581;SDS011;10952;50.836;4.348;2023-11-21T12:58:23;25.80;;;10.57;;
21581;SDS011;10952;50.836;4.348;2023-11-21T13:00:50;17.70;;;10.50;;
21581;SDS011;10952;50.836;4.348;2023-11-21T13:03:19;18.67;;;10.63;;
21581;SDS011;10952;50.836;4.348;2023-11-21T13:05:50;17.00;;;10.17;;
21581;SDS011;10952;50.836;4.348;2023-11-21T13:08:19;16.07;;;10.53;;
21581;SDS011;10952;50.836;4.348;2023-11-21T13:10:51;18.13;;;10.70;;
21581;SDS011;10952;50.836;4.348;2023-11-21T13:13:20;29.67;;;17.97;;
21581;SDS011;10952;50.836;4.348;2023-11-21T13:16:02;20.60;;;11.83;;
21581;SDS011;10952;50.836;4.348;2023-11-21T13:18:31;21.13;;;12.40;;
21581;SDS011;10952;50.836;4.348;2023-11-21T13:20:57;22.73;;;11.10;;
21581;SDS011;10952;50.836;4.348;2023-11-21T13:23:24;19.77;;;11.83;;
21581;SDS011;10952;50.836;4.348;2023-11-21T13:25:51;20.43;;;12.07;;
21581;SDS011;10952;50.836;4.348;2023-11-21T13:28:18;20.77;;;13.03;;
21581;SDS011;10952;50.836;4.348;2023-11-21T13:30:46;18.70;;;10.90;;
21581;SDS011;10952;50.836;4.348;2023-11-21T13:33:14;22.83;;;13.10;;
21581;SDS011;10952;50.836;4.348;2023-11-21T13:35:46;20.80;;;12.30;;
21581;SDS011;10952;50.836;4.348;2023-11-21T13:38:14;18.43;;;12.03;;
21581;SDS011;10952;50.836;4.348;2023-11-21T13:40:51;26.73;;;13.03;;
21581;SDS011;10952;50.836;4.348;2023-11-21T13:43:22;26.10;;;13.70;;
21581;SDS011;10952;50.836;4.348;2023-11-21T13:45:50;23.43;;;14.70;;
21581;SDS011;10952;50.836;4.348;2023-11-21T13:48:24;21.00;;;12.43;;
21581;SDS011;10952;50.836;4.348;2023-11-21T13:50:56;36.47;;;19.57;;
21581;SDS011;10952;50.836;4.348;2023-11-21T13:53:35;27.37;;;18.57;;
21581;SDS011;10952;50.836;4.348;2023-11-21T13:56:02;14.47;;;10.20;;
21581;SDS011;10952;50.836;4.348;2023-11-21T13:58:29;11.73;;;8.53;;
21581;SDS011;10952;50.836;4.348;2023-11-21T14:01:13;13.17;;;9.43;;
21581;SDS011;10952;50.836;4.348;2023-11-21T14:04:02;14.63;;;8.90;;
21581;SDS011;10952;50.836;4.348;2023-11-21T14:06:40;14.40;;;7.70;;
21581;SDS011;10952;50.836;4.348;2023-11-21T14:09:16;13.27;;;8.43;;
21581;SDS011;10952;50.836;4.348;2023-11-21T14:11:54;15.37;;;8.73;;
21581;SDS011;10952;50.836;4.348;2023-11-21T14:14:22;11.00;;;7.33;;
21581;SDS011;10952;50.836;4.348;2023-11-21T14:16:50;11.87;;;8.50;;
21581;SDS011;10952;50.836;4.348;2023-11-21T14:19:16;12.40;;;6.93;;
21581;SDS011;10952;50.836;4.348;2023-11-21T14:21:45;14.43;;;7.50;;
21581;SDS011;10952;50.836;4.348;2023-11-21T14:24:11;13.23;;;7.27;;
21581;SDS011;10952;50.836;4.348;2023-11-21T14:26:43;9.20;;;5.53;;
21581;SDS011;10952;50.836;4.348;2023-11-21T14:29:13;8.97;;;4.97;;
21581;SDS011;10952;50.836;4.348;2023-11-21T14:31:42;12.80;;;6.43;;
21581;SDS011;10952;50.836;4.348;2023-11-21T14:34:08;9.50;;;6.30;;
21581;SDS011;10952;50.836;4.348;2023-11-21T14:36:34;9.20;;;5.57;;
21581;SDS011;10952;50.836;4.348;2023-11-21T14:39:01;12.57;;;6.43;;
21581;SDS011;10952;50.836;4.348;2023-11-21T14:41:32;9.57;;;6.17;;